WGA8556 KLAX-KDFW
Flight info
| Callsign | WGA8556 |
|---|---|
| Flight time | 2h 28m |
| Altitude | 35000 |
| Route | DOTSS2 CNERY BLH J169 TFD J50 SSO J4 INK GEEKY BOOVE7 |
| Aircraft | MD11/H-SDE1E2E3FGHIJ2J3J4J5M1RWXY/LB1D1 |
Departure
| Time | 2026-04-25 22:02 |
|---|---|
| Airport | Los Angeles International Airport (KLAX) |
Arrival
| Time | 2026-04-26 00:31 |
|---|---|
| Airport | Dallas Fort Worth International Airport (KDFW) |
| Time | Latitude | Longitude | Altitude | Speed | Heading |
|---|---|---|---|---|---|
| 2026-04-25 21:39 | 33.94218 | -118.38421 | 100 ft | 0 kts | 315° |
| 2026-04-25 21:52 | 33.94202 | -118.38403 | 99 ft | 4 kts | 313° |
| 2026-04-25 21:52 | 33.94186 | -118.38378 | 100 ft | 4 kts | 296° |
| 2026-04-25 21:53 | 33.94174 | -118.38354 | 101 ft | 4 kts | 329° |
| 2026-04-25 21:53 | 33.94155 | -118.38347 | 100 ft | 4 kts | 15° |
| 2026-04-25 21:53 | 33.94137 | -118.38355 | 100 ft | 4 kts | 33° |
| 2026-04-25 21:53 | 33.94121 | -118.38374 | 101 ft | 4 kts | 71° |
| 2026-04-25 21:54 | 33.94116 | -118.38404 | 101 ft | 4 kts | 85° |
| 2026-04-25 21:54 | 33.94113 | -118.38434 | 100 ft | 4 kts | 83° |
| 2026-04-25 21:54 | 33.94110 | -118.38466 | 101 ft | 4 kts | 82° |
| 2026-04-25 21:54 | 33.94107 | -118.38487 | 101 ft | 0 kts | 83° |
| 2026-04-25 21:59 | 33.94109 | -118.38476 | 103 ft | 5 kts | 83° |
| 2026-04-25 21:59 | 33.94113 | -118.38392 | 104 ft | 14 kts | 96° |
| 2026-04-25 21:59 | 33.94071 | -118.38319 | 102 ft | 9 kts | 123° |
| 2026-04-25 22:00 | 33.94075 | -118.38075 | 101 ft | 7 kts | 83° |
| 2026-04-25 22:00 | 33.94077 | -118.38054 | 100 ft | 0 kts | 83° |
| 2026-04-25 22:01 | 33.94076 | -118.38044 | 100 ft | 4 kts | 97° |
| 2026-04-25 22:01 | 33.94039 | -118.38007 | 100 ft | 12 kts | 153° |
| 2026-04-25 22:01 | 33.93998 | -118.38010 | 102 ft | 7 kts | 215° |
| 2026-04-25 22:02 | 33.93957 | -118.38288 | 105 ft | 67 kts | 263° |
| 2026-04-25 22:02 | 33.93866 | -118.39182 | 104 ft | 144 kts | 263° |
| 2026-04-25 22:02 | 33.93722 | -118.40584 | 349 ft | 180 kts | 261° |
| 2026-04-25 22:02 | 33.93567 | -118.42066 | 1300 ft | 175 kts | 260° |
| 2026-04-25 22:03 | 33.93416 | -118.43533 | 2224 ft | 184 kts | 261° |
| 2026-04-25 22:03 | 33.93233 | -118.45051 | 2521 ft | 183 kts | 252° |
| 2026-04-25 22:03 | 33.92623 | -118.46386 | 2994 ft | 184 kts | 234° |
| 2026-04-25 22:03 | 33.91850 | -118.47641 | 3795 ft | 199 kts | 233° |
| 2026-04-25 22:04 | 33.90920 | -118.49104 | 3955 ft | 238 kts | 232° |
| 2026-04-25 22:04 | 33.89824 | -118.50745 | 4315 ft | 259 kts | 231° |
| 2026-04-25 22:04 | 33.88674 | -118.52434 | 5318 ft | 262 kts | 231° |
| 2026-04-25 22:04 | 33.87474 | -118.54113 | 6276 ft | 267 kts | 225° |
| 2026-04-25 22:05 | 33.85969 | -118.55430 | 7202 ft | 271 kts | 205° |
| 2026-04-25 22:05 | 33.84122 | -118.55902 | 8062 ft | 277 kts | 180° |
| 2026-04-25 22:05 | 33.82192 | -118.55604 | 8868 ft | 283 kts | 170° |
| 2026-04-25 22:05 | 33.80277 | -118.55082 | 9686 ft | 287 kts | 168° |
| 2026-04-25 22:06 | 33.78318 | -118.54508 | 10324 ft | 300 kts | 169° |
| 2026-04-25 22:06 | 33.76187 | -118.53895 | 10457 ft | 329 kts | 170° |
| 2026-04-25 22:06 | 33.73864 | -118.53204 | 10666 ft | 354 kts | 167° |
| 2026-04-25 22:06 | 33.71560 | -118.52079 | 11490 ft | 363 kts | 154° |
| 2026-04-25 22:07 | 33.69540 | -118.50190 | 12316 ft | 377 kts | 137° |
| 2026-04-25 22:07 | 33.68501 | -118.48493 | 12796 ft | 387 kts | 125° |
| 2026-04-25 22:07 | 33.67051 | -118.44447 | 13739 ft | 401 kts | 113° |
| 2026-04-25 22:07 | 33.66193 | -118.41235 | 14414 ft | 407 kts | 111° |
| 2026-04-25 22:08 | 33.65367 | -118.38015 | 15084 ft | 411 kts | 112° |
| 2026-04-25 22:08 | 33.64601 | -118.34690 | 15687 ft | 419 kts | 104° |
| 2026-04-25 22:08 | 33.64284 | -118.31183 | 16300 ft | 427 kts | 96° |
| 2026-04-25 22:08 | 33.64240 | -118.27604 | 16915 ft | 432 kts | 93° |
| 2026-04-25 22:09 | 33.64297 | -118.23978 | 17476 ft | 437 kts | 92° |
| 2026-04-25 22:09 | 33.64368 | -118.20320 | 18061 ft | 440 kts | 92° |
| 2026-04-25 22:09 | 33.64424 | -118.16624 | 18589 ft | 445 kts | 92° |
| 2026-04-25 22:09 | 33.64457 | -118.12899 | 19121 ft | 448 kts | 93° |
| 2026-04-25 22:10 | 33.64473 | -118.09146 | 19634 ft | 452 kts | 93° |
| 2026-04-25 22:10 | 33.64478 | -118.05373 | 20149 ft | 454 kts | 94° |
| 2026-04-25 22:10 | 33.64476 | -118.01560 | 20650 ft | 457 kts | 94° |
| 2026-04-25 22:10 | 33.64469 | -117.97734 | 21136 ft | 460 kts | 94° |
| 2026-04-25 22:11 | 33.64461 | -117.93883 | 21636 ft | 464 kts | 93° |
| 2026-04-25 22:11 | 33.64453 | -117.89992 | 22118 ft | 467 kts | 93° |
| 2026-04-25 22:11 | 33.64446 | -117.86085 | 22622 ft | 470 kts | 93° |
| 2026-04-25 22:11 | 33.64432 | -117.82159 | 23107 ft | 472 kts | 95° |
| 2026-04-25 22:12 | 33.64095 | -117.78246 | 23576 ft | 470 kts | 104° |
| 2026-04-25 22:12 | 33.63358 | -117.74423 | 24029 ft | 471 kts | 110° |
| 2026-04-25 22:12 | 33.62429 | -117.70647 | 24516 ft | 473 kts | 112° |
| 2026-04-25 22:12 | 33.61774 | -117.68152 | 24808 ft | 476 kts | 112° |
| 2026-04-25 22:13 | 33.60428 | -117.63061 | 25442 ft | 481 kts | 112° |
| 2026-04-25 22:13 | 33.59435 | -117.59211 | 25872 ft | 486 kts | 112° |
| 2026-04-25 22:13 | 33.58454 | -117.55316 | 26306 ft | 490 kts | 111° |
| 2026-04-25 22:13 | 33.57478 | -117.51377 | 26728 ft | 494 kts | 111° |
| 2026-04-25 22:14 | 33.56502 | -117.47405 | 27130 ft | 499 kts | 111° |
| 2026-04-25 22:14 | 33.55520 | -117.43395 | 27556 ft | 503 kts | 111° |
| 2026-04-25 22:14 | 33.54532 | -117.39366 | 27940 ft | 507 kts | 112° |
| 2026-04-25 22:14 | 33.53532 | -117.35294 | 28325 ft | 511 kts | 112° |
| 2026-04-25 22:15 | 33.52524 | -117.31202 | 28710 ft | 514 kts | 112° |
| 2026-04-25 22:15 | 33.51506 | -117.27078 | 29083 ft | 518 kts | 112° |
| 2026-04-25 22:15 | 33.50607 | -117.22868 | 29390 ft | 527 kts | 105° |
| 2026-04-25 22:16 | 33.50044 | -117.13999 | 30041 ft | 541 kts | 94° |
| 2026-04-25 22:16 | 33.50060 | -117.09488 | 30384 ft | 544 kts | 93° |
| 2026-04-25 22:16 | 33.50104 | -117.05011 | 30784 ft | 544 kts | 93° |
| 2026-04-25 22:16 | 33.50127 | -117.00474 | 31206 ft | 544 kts | 94° |
| 2026-04-25 22:17 | 33.50114 | -116.95887 | 31621 ft | 544 kts | 95° |
| 2026-04-25 22:17 | 33.50072 | -116.91359 | 32032 ft | 543 kts | 95° |
| 2026-04-25 22:17 | 33.50011 | -116.86906 | 32409 ft | 543 kts | 96° |
| 2026-04-25 22:17 | 33.49940 | -116.82379 | 32776 ft | 543 kts | 96° |
| 2026-04-25 22:18 | 33.49865 | -116.77850 | 33121 ft | 543 kts | 96° |
| 2026-04-25 22:18 | 33.49789 | -116.73279 | 33461 ft | 543 kts | 96° |
| 2026-04-25 22:18 | 33.49714 | -116.68808 | 33765 ft | 543 kts | 96° |
| 2026-04-25 22:18 | 33.49638 | -116.64290 | 34084 ft | 542 kts | 96° |
| 2026-04-25 22:19 | 33.49562 | -116.59780 | 34375 ft | 542 kts | 96° |
| 2026-04-25 22:19 | 33.49510 | -116.56719 | 34566 ft | 542 kts | 96° |
| 2026-04-25 22:19 | 33.49407 | -116.50745 | 34833 ft | 544 kts | 96° |
| 2026-04-25 22:20 | 33.49242 | -116.41683 | 34871 ft | 544 kts | 96° |
| 2026-04-25 22:20 | 33.49086 | -116.32676 | 34869 ft | 544 kts | 96° |
| 2026-04-25 22:21 | 33.48947 | -116.23619 | 34862 ft | 543 kts | 96° |
| 2026-04-25 22:21 | 33.48810 | -116.14578 | 34858 ft | 542 kts | 96° |
| 2026-04-25 22:22 | 33.48695 | -116.07064 | 34860 ft | 544 kts | 95° |
| 2026-04-25 22:22 | 33.49711 | -115.98047 | 34860 ft | 553 kts | 75° |
| 2026-04-25 22:23 | 33.52376 | -115.89353 | 34851 ft | 557 kts | 69° |
| 2026-04-25 22:23 | 33.55217 | -115.80711 | 34852 ft | 557 kts | 71° |
| 2026-04-25 22:24 | 33.57851 | -115.71986 | 34844 ft | 557 kts | 72° |
| 2026-04-25 22:24 | 33.60377 | -115.63219 | 34849 ft | 557 kts | 73° |
| 2026-04-25 22:25 | 33.62668 | -115.54349 | 34841 ft | 555 kts | 81° |
| 2026-04-25 22:25 | 33.63235 | -115.45236 | 34833 ft | 545 kts | 98° |
| 2026-04-25 22:26 | 33.62676 | -115.36200 | 34826 ft | 543 kts | 101° |
| 2026-04-25 22:26 | 33.62072 | -115.27155 | 34828 ft | 545 kts | 99° |
| 2026-04-25 22:27 | 33.61608 | -115.18056 | 34818 ft | 547 kts | 98° |
| 2026-04-25 22:27 | 33.61201 | -115.08929 | 34821 ft | 549 kts | 98° |
| 2026-04-25 22:28 | 33.60790 | -114.99783 | 34823 ft | 549 kts | 98° |
| 2026-04-25 22:28 | 33.60362 | -114.90627 | 34817 ft | 550 kts | 99° |
| 2026-04-25 22:29 | 33.59923 | -114.81523 | 34817 ft | 551 kts | 99° |
| 2026-04-25 22:29 | 33.59320 | -114.72382 | 34817 ft | 549 kts | 102° |
| 2026-04-25 22:30 | 33.58072 | -114.58714 | 34820 ft | 550 kts | 102° |
| 2026-04-25 22:30 | 33.57372 | -114.51077 | 34809 ft | 550 kts | 102° |
| 2026-04-25 22:31 | 33.56418 | -114.40470 | 34816 ft | 551 kts | 102° |
| 2026-04-25 22:31 | 33.55596 | -114.31342 | 34807 ft | 551 kts | 102° |
| 2026-04-25 22:32 | 33.54763 | -114.22201 | 34813 ft | 551 kts | 102° |
| 2026-04-25 22:32 | 33.53922 | -114.13061 | 34814 ft | 552 kts | 102° |
| 2026-04-25 22:33 | 33.53075 | -114.03925 | 34830 ft | 552 kts | 102° |
| 2026-04-25 22:33 | 33.52223 | -113.94794 | 34835 ft | 552 kts | 102° |
| 2026-04-25 22:34 | 33.51349 | -113.85650 | 34835 ft | 552 kts | 103° |
| 2026-04-25 22:34 | 33.50459 | -113.76506 | 34830 ft | 553 kts | 102° |
| 2026-04-25 22:35 | 33.49575 | -113.67342 | 34833 ft | 554 kts | 102° |
| 2026-04-25 22:35 | 33.48697 | -113.58228 | 34841 ft | 554 kts | 102° |
| 2026-04-25 22:36 | 33.47822 | -113.49135 | 34883 ft | 527 kts | 102° |
| 2026-04-25 22:36 | 33.47439 | -113.44958 | 34814 ft | 481 kts | 103° |
| 2026-04-25 22:36 | 33.47085 | -113.41126 | 34801 ft | 447 kts | 104° |
| 2026-04-25 22:37 | 33.46715 | -113.37597 | 34787 ft | 404 kts | 109° |
| 2026-04-25 22:37 | 33.46050 | -113.34537 | 34772 ft | 358 kts | 123° |
| 2026-04-25 22:37 | 33.45165 | -113.31922 | 34783 ft | 321 kts | 129° |
| 2026-04-25 22:37 | 33.44273 | -113.29608 | 34698 ft | 293 kts | 133° |
| 2026-04-25 22:38 | 33.43399 | -113.27449 | 34151 ft | 288 kts | 134° |
| 2026-04-25 22:38 | 33.42481 | -113.25270 | 33217 ft | 301 kts | 133° |
| 2026-04-25 22:38 | 33.41532 | -113.22993 | 32486 ft | 306 kts | 131° |
| 2026-04-25 22:38 | 33.40679 | -113.20815 | 32420 ft | 276 kts | 131° |
| 2026-04-25 22:39 | 33.39927 | -113.18824 | 32249 ft | 255 kts | 133° |
| 2026-04-25 22:39 | 33.39134 | -113.16842 | 31241 ft | 269 kts | 133° |
| 2026-04-25 22:39 | 33.38296 | -113.14806 | 30168 ft | 280 kts | 130° |
| 2026-04-25 22:39 | 33.37474 | -113.12717 | 29563 ft | 268 kts | 129° |
| 2026-04-25 22:40 | 33.36693 | -113.10713 | 28856 ft | 265 kts | 128° |
| 2026-04-25 22:40 | 33.35921 | -113.08747 | 28166 ft | 263 kts | 129° |
| 2026-04-25 22:40 | 33.35154 | -113.06789 | 27545 ft | 258 kts | 128° |
| 2026-04-25 22:40 | 33.34396 | -113.04856 | 26905 ft | 255 kts | 128° |
| 2026-04-25 22:41 | 33.33642 | -113.02944 | 26302 ft | 253 kts | 128° |
| 2026-04-25 22:41 | 33.32904 | -113.01060 | 25800 ft | 247 kts | 128° |
| 2026-04-25 22:41 | 33.32184 | -112.99220 | 25283 ft | 244 kts | 128° |
| 2026-04-25 22:41 | 33.31457 | -112.97381 | 24680 ft | 246 kts | 128° |
| 2026-04-25 22:42 | 33.30730 | -112.95541 | 24186 ft | 242 kts | 127° |
| 2026-04-25 22:42 | 33.30022 | -112.93735 | 23746 ft | 238 kts | 128° |
| 2026-04-25 22:42 | 33.29309 | -112.91936 | 23241 ft | 239 kts | 127° |
| 2026-04-25 22:42 | 33.28607 | -112.90148 | 22859 ft | 236 kts | 128° |
| 2026-04-25 22:43 | 33.27914 | -112.88385 | 22475 ft | 233 kts | 127° |
| 2026-04-25 22:43 | 33.27226 | -112.86638 | 22088 ft | 232 kts | 127° |
| 2026-04-25 22:43 | 33.26541 | -112.84899 | 21740 ft | 230 kts | 128° |
| 2026-04-25 22:43 | 33.25861 | -112.83171 | 21390 ft | 229 kts | 126° |
| 2026-04-25 22:44 | 33.25185 | -112.81456 | 21038 ft | 228 kts | 128° |
| 2026-04-25 22:44 | 33.24511 | -112.79751 | 20766 ft | 225 kts | 127° |
| 2026-04-25 22:44 | 33.23847 | -112.78070 | 20480 ft | 224 kts | 128° |
| 2026-04-25 22:44 | 33.23179 | -112.76384 | 20181 ft | 224 kts | 128° |
| 2026-04-25 22:45 | 33.22516 | -112.74712 | 19896 ft | 224 kts | 128° |
| 2026-04-25 22:45 | 33.21840 | -112.73013 | 19698 ft | 232 kts | 126° |
| 2026-04-25 22:45 | 33.21085 | -112.71121 | 19325 ft | 267 kts | 126° |
| 2026-04-25 22:45 | 33.20221 | -112.69118 | 19590 ft | 274 kts | 128° |
| 2026-04-25 22:46 | 33.19305 | -112.66983 | 19426 ft | 305 kts | 124° |
| 2026-04-25 22:46 | 33.18356 | -112.64638 | 19581 ft | 322 kts | 123° |
| 2026-04-25 22:46 | 33.17355 | -112.62146 | 19736 ft | 343 kts | 122° |
| 2026-04-25 22:46 | 33.16322 | -112.59479 | 19855 ft | 365 kts | 122° |
| 2026-04-25 22:47 | 33.15228 | -112.56658 | 19965 ft | 385 kts | 122° |
| 2026-04-25 22:47 | 33.14078 | -112.53692 | 20089 ft | 402 kts | 121° |
| 2026-04-25 22:47 | 33.12873 | -112.50600 | 20211 ft | 421 kts | 121° |
| 2026-04-25 22:47 | 33.11613 | -112.47374 | 20343 ft | 436 kts | 121° |
| 2026-04-25 22:48 | 33.10315 | -112.44096 | 20469 ft | 450 kts | 121° |
| 2026-04-25 22:48 | 33.08944 | -112.40679 | 20600 ft | 463 kts | 121° |
| 2026-04-25 22:48 | 33.07527 | -112.37161 | 20728 ft | 478 kts | 121° |
| 2026-04-25 22:48 | 33.06066 | -112.33529 | 20859 ft | 495 kts | 121° |
| 2026-04-25 22:49 | 33.04553 | -112.29769 | 20985 ft | 512 kts | 121° |
| 2026-04-25 22:49 | 33.02999 | -112.25895 | 21435 ft | 520 kts | 120° |
| 2026-04-25 22:49 | 33.01434 | -112.21986 | 22018 ft | 526 kts | 120° |
| 2026-04-25 22:49 | 32.99852 | -112.18035 | 22615 ft | 531 kts | 120° |
| 2026-04-25 22:50 | 32.98253 | -112.14045 | 23162 ft | 536 kts | 121° |
| 2026-04-25 22:50 | 32.96634 | -112.10019 | 23613 ft | 542 kts | 121° |
| 2026-04-25 22:50 | 32.95002 | -112.05967 | 24080 ft | 544 kts | 121° |
| 2026-04-25 22:50 | 32.93381 | -112.01950 | 24613 ft | 544 kts | 121° |
| 2026-04-25 22:51 | 32.91742 | -111.97891 | 25161 ft | 544 kts | 121° |
| 2026-04-25 22:51 | 32.90099 | -111.93828 | 25628 ft | 546 kts | 121° |
| 2026-04-25 22:51 | 32.88508 | -111.89733 | 26164 ft | 548 kts | 117° |
| 2026-04-25 22:51 | 32.87212 | -111.85446 | 26727 ft | 551 kts | 112° |
| 2026-04-25 22:52 | 32.86161 | -111.81055 | 27284 ft | 553 kts | 109° |
| 2026-04-25 22:52 | 32.85228 | -111.76613 | 27840 ft | 553 kts | 108° |
| 2026-04-25 22:52 | 32.84328 | -111.72167 | 28394 ft | 553 kts | 108° |
| 2026-04-25 22:52 | 32.83730 | -111.69238 | 28738 ft | 552 kts | 108° |
| 2026-04-25 22:53 | 32.82478 | -111.63308 | 29386 ft | 552 kts | 109° |
| 2026-04-25 22:53 | 32.81510 | -111.58897 | 29884 ft | 551 kts | 109° |
| 2026-04-25 22:53 | 32.80526 | -111.54495 | 30351 ft | 551 kts | 109° |
| 2026-04-25 22:53 | 32.79534 | -111.50093 | 30816 ft | 551 kts | 110° |
| 2026-04-25 22:54 | 32.78540 | -111.45692 | 31225 ft | 551 kts | 110° |
| 2026-04-25 22:54 | 32.77546 | -111.41291 | 31625 ft | 551 kts | 110° |
| 2026-04-25 22:54 | 32.76552 | -111.36890 | 32036 ft | 552 kts | 110° |
| 2026-04-25 22:54 | 32.75559 | -111.32485 | 32377 ft | 553 kts | 110° |
| 2026-04-25 22:55 | 32.74561 | -111.28072 | 32739 ft | 553 kts | 111° |
| 2026-04-25 22:55 | 32.73563 | -111.23661 | 33066 ft | 554 kts | 111° |
| 2026-04-25 22:55 | 32.72558 | -111.19234 | 33396 ft | 555 kts | 111° |
| 2026-04-25 22:55 | 32.71553 | -111.14811 | 33711 ft | 555 kts | 111° |
| 2026-04-25 22:56 | 32.70547 | -111.10387 | 34084 ft | 554 kts | 111° |
| 2026-04-25 22:56 | 32.69545 | -111.05986 | 34450 ft | 553 kts | 111° |
| 2026-04-25 22:56 | 32.68542 | -111.01587 | 34788 ft | 553 kts | 112° |
| 2026-04-25 22:56 | 32.67529 | -110.97168 | 34884 ft | 555 kts | 112° |
| 2026-04-25 22:57 | 32.65496 | -110.88316 | 34925 ft | 557 kts | 111° |
| 2026-04-25 22:57 | 32.63453 | -110.79444 | 34951 ft | 558 kts | 112° |
| 2026-04-25 22:58 | 32.61407 | -110.70572 | 34968 ft | 557 kts | 112° |
| 2026-04-25 22:58 | 32.59327 | -110.61722 | 34970 ft | 557 kts | 112° |
| 2026-04-25 22:59 | 32.57266 | -110.52939 | 34969 ft | 557 kts | 112° |
| 2026-04-25 22:59 | 32.55205 | -110.44088 | 34965 ft | 557 kts | 112° |
| 2026-04-25 23:00 | 32.53146 | -110.35227 | 34957 ft | 558 kts | 111° |
| 2026-04-25 23:00 | 32.51076 | -110.26376 | 34937 ft | 558 kts | 111° |
| 2026-04-25 23:01 | 32.48995 | -110.17532 | 34933 ft | 558 kts | 112° |
| 2026-04-25 23:01 | 32.46911 | -110.08679 | 34929 ft | 557 kts | 112° |
| 2026-04-25 23:02 | 32.44825 | -109.99849 | 34933 ft | 557 kts | 112° |
| 2026-04-25 23:02 | 32.42723 | -109.91005 | 34932 ft | 558 kts | 112° |
| 2026-04-25 23:03 | 32.40621 | -109.82169 | 34933 ft | 558 kts | 112° |
| 2026-04-25 23:03 | 32.38508 | -109.73326 | 34930 ft | 558 kts | 112° |
| 2026-04-25 23:04 | 32.36749 | -109.65989 | 34932 ft | 558 kts | 112° |
| 2026-04-25 23:04 | 32.34247 | -109.55692 | 34932 ft | 558 kts | 112° |
| 2026-04-25 23:05 | 32.32103 | -109.46880 | 34920 ft | 558 kts | 112° |
| 2026-04-25 23:05 | 32.29982 | -109.38112 | 34915 ft | 559 kts | 112° |
| 2026-04-25 23:06 | 32.27840 | -109.29277 | 34915 ft | 559 kts | 112° |
| 2026-04-25 23:06 | 32.26076 | -109.20307 | 34914 ft | 566 kts | 103° |
| 2026-04-25 23:07 | 32.25172 | -109.11033 | 34917 ft | 568 kts | 99° |
| 2026-04-25 23:07 | 32.24438 | -109.01746 | 34918 ft | 568 kts | 99° |
| 2026-04-25 23:08 | 32.23763 | -108.94044 | 34916 ft | 568 kts | 100° |
| 2026-04-25 23:08 | 32.22882 | -108.84743 | 34916 ft | 570 kts | 100° |
| 2026-04-25 23:09 | 32.21829 | -108.73949 | 34915 ft | 568 kts | 100° |
| 2026-04-25 23:09 | 32.21075 | -108.66184 | 34916 ft | 568 kts | 100° |
| 2026-04-25 23:10 | 32.20171 | -108.56910 | 34917 ft | 568 kts | 100° |
| 2026-04-25 23:10 | 32.19257 | -108.47640 | 34924 ft | 569 kts | 99° |
| 2026-04-25 23:11 | 32.18336 | -108.38372 | 34933 ft | 568 kts | 99° |
| 2026-04-25 23:11 | 32.17410 | -108.29112 | 34945 ft | 568 kts | 99° |
| 2026-04-25 23:12 | 32.16455 | -108.19853 | 34943 ft | 568 kts | 100° |
| 2026-04-25 23:12 | 32.15501 | -108.10668 | 34924 ft | 567 kts | 99° |
| 2026-04-25 23:13 | 32.14552 | -108.01424 | 34926 ft | 568 kts | 99° |
| 2026-04-25 23:13 | 32.13600 | -107.92184 | 34921 ft | 568 kts | 99° |
| 2026-04-25 23:14 | 32.12644 | -107.82938 | 34915 ft | 568 kts | 100° |
| 2026-04-25 23:14 | 32.11678 | -107.73693 | 34915 ft | 567 kts | 100° |
| 2026-04-25 23:15 | 32.10706 | -107.64461 | 34911 ft | 567 kts | 100° |
| 2026-04-25 23:15 | 32.09725 | -107.55227 | 34904 ft | 567 kts | 100° |
| 2026-04-25 23:16 | 32.08740 | -107.45989 | 34907 ft | 568 kts | 100° |
| 2026-04-25 23:16 | 32.07745 | -107.36750 | 34914 ft | 568 kts | 100° |
| 2026-04-25 23:17 | 32.06736 | -107.27506 | 34916 ft | 568 kts | 100° |
| 2026-04-25 23:17 | 32.05700 | -107.18263 | 34914 ft | 570 kts | 100° |
| 2026-04-25 23:18 | 32.04673 | -107.09007 | 34916 ft | 569 kts | 100° |
| 2026-04-25 23:18 | 32.03652 | -106.99762 | 34915 ft | 569 kts | 99° |
| 2026-04-25 23:19 | 32.02626 | -106.90520 | 34915 ft | 568 kts | 100° |
| 2026-04-25 23:19 | 32.01592 | -106.81295 | 34915 ft | 568 kts | 100° |
| 2026-04-25 23:20 | 32.00552 | -106.72077 | 34907 ft | 567 kts | 100° |
| 2026-04-25 23:20 | 31.99512 | -106.62922 | 34907 ft | 566 kts | 99° |
| 2026-04-25 23:21 | 31.98462 | -106.53740 | 34899 ft | 565 kts | 99° |
| 2026-04-25 23:21 | 31.97414 | -106.44632 | 34890 ft | 565 kts | 99° |
| 2026-04-25 23:22 | 31.96353 | -106.35451 | 34884 ft | 565 kts | 99° |
| 2026-04-25 23:23 | 31.94998 | -106.21643 | 34877 ft | 567 kts | 94° |
| 2026-04-25 23:23 | 31.94829 | -106.12371 | 34878 ft | 567 kts | 91° |
| 2026-04-25 23:24 | 31.94785 | -106.03082 | 34887 ft | 567 kts | 91° |
| 2026-04-25 23:24 | 31.94671 | -105.93805 | 34889 ft | 567 kts | 91° |
| 2026-04-25 23:25 | 31.94508 | -105.84544 | 34889 ft | 567 kts | 92° |
| 2026-04-25 23:25 | 31.94333 | -105.75262 | 34888 ft | 567 kts | 92° |
| 2026-04-25 23:26 | 31.94156 | -105.65980 | 34872 ft | 567 kts | 92° |
| 2026-04-25 23:26 | 31.93975 | -105.56704 | 34868 ft | 567 kts | 92° |
| 2026-04-25 23:27 | 31.93786 | -105.47433 | 34869 ft | 566 kts | 92° |
| 2026-04-25 23:27 | 31.93590 | -105.38155 | 34874 ft | 566 kts | 92° |
| 2026-04-25 23:28 | 31.93382 | -105.28925 | 34879 ft | 566 kts | 92° |
| 2026-04-25 23:28 | 31.93170 | -105.19668 | 34878 ft | 566 kts | 91° |
| 2026-04-25 23:29 | 31.92971 | -105.10426 | 34869 ft | 565 kts | 91° |
| 2026-04-25 23:29 | 31.92771 | -105.01176 | 34869 ft | 565 kts | 91° |
| 2026-04-25 23:30 | 31.92564 | -104.91977 | 34870 ft | 565 kts | 91° |
| 2026-04-25 23:30 | 31.92347 | -104.82661 | 34861 ft | 566 kts | 92° |
| 2026-04-25 23:31 | 31.92126 | -104.73470 | 34856 ft | 565 kts | 91° |
| 2026-04-25 23:31 | 31.91898 | -104.64210 | 34845 ft | 567 kts | 91° |
| 2026-04-25 23:32 | 31.91662 | -104.54936 | 34842 ft | 567 kts | 92° |
| 2026-04-25 23:32 | 31.91419 | -104.45662 | 34841 ft | 567 kts | 91° |
| 2026-04-25 23:33 | 31.91167 | -104.36381 | 34831 ft | 568 kts | 92° |
| 2026-04-25 23:33 | 31.90885 | -104.27100 | 34831 ft | 568 kts | 92° |
| 2026-04-25 23:34 | 31.90608 | -104.17883 | 34818 ft | 568 kts | 92° |
| 2026-04-25 23:34 | 31.90335 | -104.08598 | 34829 ft | 569 kts | 92° |
| 2026-04-25 23:35 | 31.90059 | -103.99297 | 34824 ft | 568 kts | 92° |
| 2026-04-25 23:35 | 31.89778 | -103.90007 | 34822 ft | 568 kts | 92° |
| 2026-04-25 23:36 | 31.89488 | -103.80765 | 34818 ft | 568 kts | 92° |
| 2026-04-25 23:36 | 31.89188 | -103.71461 | 34807 ft | 568 kts | 92° |
| 2026-04-25 23:37 | 31.88883 | -103.62178 | 34816 ft | 568 kts | 92° |
| 2026-04-25 23:37 | 31.88572 | -103.52903 | 34810 ft | 568 kts | 92° |
| 2026-04-25 23:38 | 31.88256 | -103.43626 | 34793 ft | 567 kts | 92° |
| 2026-04-25 23:38 | 31.87921 | -103.34359 | 34798 ft | 567 kts | 92° |
| 2026-04-25 23:39 | 31.87677 | -103.25102 | 34793 ft | 566 kts | 86° |
| 2026-04-25 23:39 | 31.88541 | -103.15939 | 34797 ft | 563 kts | 78° |
| 2026-04-25 23:40 | 31.89897 | -103.06876 | 34791 ft | 562 kts | 77° |
| 2026-04-25 23:40 | 31.91199 | -102.97865 | 34800 ft | 562 kts | 78° |
| 2026-04-25 23:41 | 31.92409 | -102.88767 | 34793 ft | 563 kts | 78° |
| 2026-04-25 23:41 | 31.93584 | -102.79654 | 34796 ft | 563 kts | 78° |
| 2026-04-25 23:42 | 31.94756 | -102.70547 | 34804 ft | 563 kts | 78° |
| 2026-04-25 23:42 | 31.95930 | -102.61429 | 34801 ft | 562 kts | 78° |
| 2026-04-25 23:43 | 31.97098 | -102.52322 | 34800 ft | 563 kts | 78° |
| 2026-04-25 23:43 | 31.98259 | -102.43194 | 34802 ft | 563 kts | 78° |
| 2026-04-25 23:44 | 31.99411 | -102.34083 | 34800 ft | 563 kts | 78° |
| 2026-04-25 23:44 | 32.00549 | -102.24938 | 34792 ft | 564 kts | 78° |
| 2026-04-25 23:45 | 32.01667 | -102.15801 | 34799 ft | 564 kts | 78° |
| 2026-04-25 23:45 | 32.02794 | -102.06661 | 34799 ft | 564 kts | 78° |
| 2026-04-25 23:46 | 32.03924 | -101.97519 | 34791 ft | 564 kts | 78° |
| 2026-04-25 23:46 | 32.05049 | -101.88365 | 34795 ft | 564 kts | 78° |
| 2026-04-25 23:47 | 32.06166 | -101.79213 | 34786 ft | 564 kts | 78° |
| 2026-04-25 23:47 | 32.07269 | -101.70116 | 34788 ft | 564 kts | 78° |
| 2026-04-25 23:48 | 32.08372 | -101.60965 | 34783 ft | 563 kts | 79° |
| 2026-04-25 23:48 | 32.09474 | -101.51760 | 34778 ft | 563 kts | 79° |
| 2026-04-25 23:49 | 32.10554 | -101.42680 | 34776 ft | 563 kts | 79° |
| 2026-04-25 23:49 | 32.11634 | -101.33543 | 34778 ft | 562 kts | 79° |
| 2026-04-25 23:50 | 32.12681 | -101.24442 | 34777 ft | 562 kts | 79° |
| 2026-04-25 23:50 | 32.13715 | -101.15429 | 34776 ft | 561 kts | 79° |
| 2026-04-25 23:51 | 32.14747 | -101.06484 | 34771 ft | 561 kts | 79° |
| 2026-04-25 23:51 | 32.15798 | -100.97390 | 34766 ft | 560 kts | 79° |
| 2026-04-25 23:52 | 32.16844 | -100.88274 | 34766 ft | 561 kts | 79° |
| 2026-04-25 23:52 | 32.17879 | -100.79180 | 34768 ft | 559 kts | 79° |
| 2026-04-25 23:53 | 32.18907 | -100.70076 | 34767 ft | 560 kts | 79° |
| 2026-04-25 23:53 | 32.19922 | -100.61033 | 34769 ft | 558 kts | 79° |
| 2026-04-25 23:54 | 32.20934 | -100.51950 | 34775 ft | 558 kts | 79° |
| 2026-04-25 23:54 | 32.21942 | -100.42864 | 34770 ft | 558 kts | 79° |
| 2026-04-25 23:55 | 32.22939 | -100.33790 | 34760 ft | 557 kts | 79° |
| 2026-04-25 23:55 | 32.23906 | -100.24704 | 34756 ft | 557 kts | 80° |
| 2026-04-25 23:56 | 32.24718 | -100.17113 | 34749 ft | 557 kts | 79° |
| 2026-04-25 23:56 | 32.25700 | -100.08032 | 34743 ft | 557 kts | 79° |
| 2026-04-25 23:57 | 32.26673 | -99.98964 | 34730 ft | 556 kts | 80° |
| 2026-04-25 23:57 | 32.27633 | -99.89943 | 34723 ft | 557 kts | 80° |
| 2026-04-25 23:58 | 32.28464 | -99.80840 | 34723 ft | 558 kts | 83° |
| 2026-04-25 23:58 | 32.28962 | -99.71691 | 34731 ft | 558 kts | 84° |
| 2026-04-25 23:59 | 32.29392 | -99.62522 | 34747 ft | 558 kts | 84° |
| 2026-04-25 23:59 | 32.29849 | -99.53366 | 34750 ft | 558 kts | 84° |
| 2026-04-26 00:00 | 32.30320 | -99.44206 | 34747 ft | 558 kts | 84° |
| 2026-04-26 00:00 | 32.30787 | -99.35055 | 34752 ft | 558 kts | 84° |
| 2026-04-26 00:01 | 32.31246 | -99.25903 | 34748 ft | 558 kts | 84° |
| 2026-04-26 00:01 | 32.31696 | -99.16750 | 34747 ft | 557 kts | 84° |
| 2026-04-26 00:02 | 32.32138 | -99.07613 | 34745 ft | 557 kts | 84° |
| 2026-04-26 00:02 | 32.32571 | -98.98471 | 34736 ft | 557 kts | 84° |
| 2026-04-26 00:03 | 32.32983 | -98.89335 | 34737 ft | 556 kts | 84° |
| 2026-04-26 00:03 | 32.33399 | -98.80267 | 34735 ft | 555 kts | 84° |
| 2026-04-26 00:04 | 32.33820 | -98.71152 | 34735 ft | 555 kts | 84° |
| 2026-04-26 00:04 | 32.34029 | -98.66612 | 34624 ft | 550 kts | 84° |
| 2026-04-26 00:04 | 32.34234 | -98.62123 | 34073 ft | 543 kts | 84° |
| 2026-04-26 00:04 | 32.34432 | -98.57695 | 33355 ft | 540 kts | 85° |
| 2026-04-26 00:05 | 32.34622 | -98.53375 | 32652 ft | 538 kts | 85° |
| 2026-04-26 00:05 | 32.34812 | -98.48982 | 31931 ft | 537 kts | 85° |
| 2026-04-26 00:05 | 32.35003 | -98.44571 | 31236 ft | 537 kts | 85° |
| 2026-04-26 00:05 | 32.35192 | -98.40229 | 30539 ft | 536 kts | 85° |
| 2026-04-26 00:06 | 32.35384 | -98.35835 | 29830 ft | 535 kts | 85° |
| 2026-04-26 00:06 | 32.35572 | -98.31453 | 29147 ft | 528 kts | 85° |
| 2026-04-26 00:06 | 32.35748 | -98.27160 | 28432 ft | 519 kts | 85° |
| 2026-04-26 00:06 | 32.35919 | -98.22934 | 27669 ft | 511 kts | 86° |
| 2026-04-26 00:07 | 32.36087 | -98.18757 | 26912 ft | 504 kts | 86° |
| 2026-04-26 00:07 | 32.36250 | -98.14668 | 26181 ft | 496 kts | 86° |
| 2026-04-26 00:07 | 32.36413 | -98.10614 | 25440 ft | 488 kts | 86° |
| 2026-04-26 00:07 | 32.36574 | -98.06641 | 24724 ft | 480 kts | 86° |
| 2026-04-26 00:08 | 32.36733 | -98.02723 | 24013 ft | 472 kts | 86° |
| 2026-04-26 00:08 | 32.36887 | -97.98881 | 23336 ft | 465 kts | 86° |
| 2026-04-26 00:08 | 32.37037 | -97.95088 | 22871 ft | 457 kts | 86° |
| 2026-04-26 00:08 | 32.37183 | -97.91351 | 22687 ft | 455 kts | 86° |
| 2026-04-26 00:09 | 32.37325 | -97.87629 | 22480 ft | 454 kts | 86° |
| 2026-04-26 00:09 | 32.37468 | -97.83907 | 21692 ft | 445 kts | 86° |
| 2026-04-26 00:09 | 32.37606 | -97.80296 | 20981 ft | 434 kts | 86° |
| 2026-04-26 00:09 | 32.37742 | -97.76764 | 20303 ft | 427 kts | 86° |
| 2026-04-26 00:10 | 32.37876 | -97.73269 | 19629 ft | 423 kts | 86° |
| 2026-04-26 00:10 | 32.38009 | -97.69812 | 18966 ft | 418 kts | 86° |
| 2026-04-26 00:10 | 32.38161 | -97.66400 | 18355 ft | 413 kts | 84° |
| 2026-04-26 00:10 | 32.38691 | -97.63095 | 17703 ft | 407 kts | 68° |
| 2026-04-26 00:11 | 32.40024 | -97.60224 | 17110 ft | 393 kts | 48° |
| 2026-04-26 00:11 | 32.41852 | -97.57866 | 16774 ft | 387 kts | 40° |
| 2026-04-26 00:11 | 32.43825 | -97.55704 | 16652 ft | 385 kts | 38° |
| 2026-04-26 00:11 | 32.45819 | -97.53588 | 16605 ft | 385 kts | 38° |
| 2026-04-26 00:12 | 32.47803 | -97.51456 | 16549 ft | 385 kts | 39° |
| 2026-04-26 00:12 | 32.49762 | -97.49307 | 16488 ft | 384 kts | 39° |
| 2026-04-26 00:12 | 32.51705 | -97.47139 | 16418 ft | 384 kts | 40° |
| 2026-04-26 00:12 | 32.53642 | -97.44952 | 15844 ft | 381 kts | 40° |
| 2026-04-26 00:13 | 32.55549 | -97.42782 | 15235 ft | 379 kts | 41° |
| 2026-04-26 00:13 | 32.57442 | -97.40617 | 14644 ft | 376 kts | 41° |
| 2026-04-26 00:13 | 32.59313 | -97.38474 | 14035 ft | 373 kts | 42° |
| 2026-04-26 00:13 | 32.61170 | -97.36343 | 13450 ft | 370 kts | 42° |
| 2026-04-26 00:14 | 32.63015 | -97.34225 | 13037 ft | 367 kts | 42° |
| 2026-04-26 00:14 | 32.64814 | -97.32161 | 12873 ft | 356 kts | 42° |
| 2026-04-26 00:14 | 32.66547 | -97.30168 | 12749 ft | 344 kts | 42° |
| 2026-04-26 00:14 | 32.68281 | -97.28171 | 12653 ft | 342 kts | 43° |
| 2026-04-26 00:15 | 32.69987 | -97.26202 | 12462 ft | 340 kts | 43° |
| 2026-04-26 00:15 | 32.71675 | -97.24253 | 12233 ft | 332 kts | 43° |
| 2026-04-26 00:15 | 32.73276 | -97.22399 | 12172 ft | 313 kts | 43° |
| 2026-04-26 00:15 | 32.74774 | -97.20666 | 12104 ft | 298 kts | 43° |
| 2026-04-26 00:16 | 32.76233 | -97.18978 | 12032 ft | 288 kts | 43° |
| 2026-04-26 00:16 | 32.77762 | -97.17481 | 12018 ft | 284 kts | 26° |
| 2026-04-26 00:16 | 32.79583 | -97.16796 | 12037 ft | 268 kts | 2° |
| 2026-04-26 00:16 | 32.81449 | -97.16662 | 12038 ft | 268 kts | 356° |
| 2026-04-26 00:17 | 32.83309 | -97.16645 | 12015 ft | 265 kts | 356° |
| 2026-04-26 00:17 | 32.85139 | -97.16642 | 11388 ft | 266 kts | 356° |
| 2026-04-26 00:17 | 32.86988 | -97.16639 | 10759 ft | 266 kts | 356° |
| 2026-04-26 00:17 | 32.88839 | -97.16632 | 10128 ft | 266 kts | 357° |
| 2026-04-26 00:18 | 32.90671 | -97.16620 | 9498 ft | 267 kts | 357° |
| 2026-04-26 00:18 | 32.92480 | -97.16605 | 8902 ft | 267 kts | 357° |
| 2026-04-26 00:18 | 32.94344 | -97.16588 | 8301 ft | 268 kts | 358° |
| 2026-04-26 00:18 | 32.96197 | -97.16571 | 7745 ft | 266 kts | 358° |
| 2026-04-26 00:19 | 32.98042 | -97.16552 | 7242 ft | 263 kts | 358° |
| 2026-04-26 00:19 | 32.99855 | -97.16526 | 6886 ft | 265 kts | 358° |
| 2026-04-26 00:19 | 33.01695 | -97.16508 | 6509 ft | 264 kts | 358° |
| 2026-04-26 00:19 | 33.03525 | -97.16487 | 6140 ft | 262 kts | 358° |
| 2026-04-26 00:20 | 33.05335 | -97.16462 | 6032 ft | 260 kts | 359° |
| 2026-04-26 00:20 | 33.07150 | -97.16438 | 6022 ft | 261 kts | 359° |
| 2026-04-26 00:20 | 33.08961 | -97.16410 | 6024 ft | 260 kts | 358° |
| 2026-04-26 00:20 | 33.10750 | -97.16395 | 6016 ft | 260 kts | 358° |
| 2026-04-26 00:21 | 33.12518 | -97.16382 | 6032 ft | 260 kts | 358° |
| 2026-04-26 00:21 | 33.14329 | -97.16365 | 6026 ft | 261 kts | 358° |
| 2026-04-26 00:21 | 33.16147 | -97.16345 | 6031 ft | 261 kts | 358° |
| 2026-04-26 00:21 | 33.17963 | -97.16325 | 6025 ft | 260 kts | 358° |
| 2026-04-26 00:22 | 33.19777 | -97.16312 | 6025 ft | 261 kts | 357° |
| 2026-04-26 00:22 | 33.21596 | -97.16318 | 6037 ft | 262 kts | 357° |
| 2026-04-26 00:22 | 33.23414 | -97.16260 | 6012 ft | 262 kts | 8° |
| 2026-04-26 00:22 | 33.25085 | -97.15485 | 5708 ft | 258 kts | 36° |
| 2026-04-26 00:23 | 33.26209 | -97.14010 | 5185 ft | 250 kts | 67° |
| 2026-04-26 00:23 | 33.26628 | -97.12075 | 4665 ft | 235 kts | 94° |
| 2026-04-26 00:23 | 33.26441 | -97.10222 | 4169 ft | 220 kts | 118° |
| 2026-04-26 00:23 | 33.25544 | -97.08873 | 3805 ft | 207 kts | 150° |
| 2026-04-26 00:24 | 33.24225 | -97.08248 | 3455 ft | 205 kts | 167° |
| 2026-04-26 00:24 | 33.22821 | -97.07913 | 3110 ft | 205 kts | 173° |
| 2026-04-26 00:24 | 33.21417 | -97.07692 | 3042 ft | 204 kts | 174° |
| 2026-04-26 00:24 | 33.20007 | -97.07482 | 3032 ft | 204 kts | 173° |
| 2026-04-26 00:25 | 33.18600 | -97.07277 | 3031 ft | 203 kts | 174° |
| 2026-04-26 00:25 | 33.17198 | -97.07071 | 3033 ft | 204 kts | 173° |
| 2026-04-26 00:25 | 33.15789 | -97.06868 | 3035 ft | 203 kts | 173° |
| 2026-04-26 00:25 | 33.14386 | -97.06665 | 3026 ft | 204 kts | 174° |
| 2026-04-26 00:26 | 33.12974 | -97.06446 | 3026 ft | 205 kts | 173° |
| 2026-04-26 00:26 | 33.11574 | -97.06237 | 3033 ft | 204 kts | 174° |
| 2026-04-26 00:26 | 33.10167 | -97.06035 | 3034 ft | 204 kts | 174° |
| 2026-04-26 00:26 | 33.08757 | -97.05828 | 3029 ft | 204 kts | 173° |
| 2026-04-26 00:27 | 33.07345 | -97.05634 | 3028 ft | 204 kts | 175° |
| 2026-04-26 00:27 | 33.05929 | -97.05502 | 3026 ft | 204 kts | 174° |
| 2026-04-26 00:27 | 33.04548 | -97.05383 | 3005 ft | 186 kts | 178° |
| 2026-04-26 00:27 | 33.03363 | -97.05380 | 2890 ft | 158 kts | 180° |
| 2026-04-26 00:28 | 33.02304 | -97.05395 | 2775 ft | 150 kts | 180° |
| 2026-04-26 00:28 | 33.01275 | -97.05403 | 2529 ft | 147 kts | 180° |
| 2026-04-26 00:28 | 33.00254 | -97.05410 | 2350 ft | 148 kts | 179° |
| 2026-04-26 00:28 | 32.99218 | -97.05417 | 2140 ft | 149 kts | 179° |
| 2026-04-26 00:29 | 32.98177 | -97.05410 | 1944 ft | 151 kts | 180° |
| 2026-04-26 00:29 | 32.97127 | -97.05426 | 1712 ft | 152 kts | 180° |
| 2026-04-26 00:29 | 32.96069 | -97.05448 | 1504 ft | 152 kts | 179° |
| 2026-04-26 00:29 | 32.95011 | -97.05442 | 1316 ft | 152 kts | 179° |
| 2026-04-26 00:30 | 32.93952 | -97.05448 | 1109 ft | 153 kts | 180° |
| 2026-04-26 00:30 | 32.92844 | -97.05456 | 904 ft | 160 kts | 180° |
| 2026-04-26 00:30 | 32.91751 | -97.05462 | 687 ft | 155 kts | 180° |
| 2026-04-26 00:30 | 32.90774 | -97.05469 | 624 ft | 117 kts | 180° |
| 2026-04-26 00:31 | 32.90158 | -97.05471 | 620 ft | 66 kts | 180° |
| 2026-04-26 00:31 | 32.89744 | -97.05475 | 621 ft | 53 kts | 180° |
| 2026-04-26 00:31 | 32.89443 | -97.05475 | 616 ft | 22 kts | 188° |
| 2026-04-26 00:31 | 32.89403 | -97.05557 | 620 ft | 10 kts | 268° |
| 2026-04-26 00:32 | 32.89404 | -97.05645 | 617 ft | 11 kts | 271° |